EPKT/KTW METAR and TAF weather

Enter ICAO airport designator
Station Type Date Time Source
EPKT METAR 2018/12/10 17:00 UTC NOAA

EPKT 101700Z 28007KT 0650 R27/1500D +SHSN BKN002 BKN010CB 00/M01 Q1009


Station Type Date Time Source
EPKT Decoded METAR 2018/12/10 17:00 UTC NOAA

Katowice, Poland (EPKT) 50-14N 019-02E 284M
Dec 10, 2018 - 12:00 PM EST / 2018.12.10 1700 UTC
Wind: from the W (280 degrees) at 8 MPH (7 KT):0
Visibility: less than 1 mile:0
Sky conditions: mostly cloudy
Weather: heavy snow showers; Cumulonimbus clouds observed
Temperature: 32 F (0 C)
Windchill: 24 F (-4 C):1
Dew Point: 30 F (-1 C)
Relative Humidity: 92%
Pressure (altimeter): 29.80 in. Hg (1009 hPa)
ob: EPKT 101700Z 28007KT 0650 R27/1500D +SHSN BKN002 BKN010CB 00/M01 Q1009
cycle: 17

Station Type Date Time Source
EPKT TAF 2018/12/10 16:56 UTC NOAA

TAF
AMD EPKT 101640Z 1016/1112 27010KT 9999 BKN020
TEMPO 1016/1018 0800 SHSN BKN003 BKN006CB
TEMPO 1018/1108 2000 SHSN BKN004 BKN010CB
BECMG 1108/1112 BKN013
TEMPO 1108/1112 2000 SN BR BKN004 OVC010 PROB40
TEMPO 1110/1112 1200 SN BKN002 OVC005


Example: see airport list